sensor_id;sensor_type;location;lat;lon;timestamp;P1;durP1;ratioP1;P2;durP2;ratioP2
71610;SDS011;59459;51.172;6.682;2023-04-05T00:00:07;16.23;;;4.50;;
71610;SDS011;59459;51.172;6.682;2023-04-05T00:02:34;10.57;;;4.05;;
71610;SDS011;59459;51.172;6.682;2023-04-05T00:05:01;11.95;;;4.70;;
71610;SDS011;59459;51.172;6.682;2023-04-05T00:07:29;11.52;;;4.25;;
71610;SDS011;59459;51.172;6.682;2023-04-05T00:09:54;12.70;;;4.20;;
71610;SDS011;59459;51.172;6.682;2023-04-05T00:12:19;12.90;;;4.70;;
71610;SDS011;59459;51.172;6.682;2023-04-05T00:14:44;13.93;;;4.97;;
71610;SDS011;59459;51.172;6.682;2023-04-05T00:17:10;13.43;;;4.17;;
71610;SDS011;59459;51.172;6.682;2023-04-05T00:19:35;10.87;;;4.23;;
71610;SDS011;59459;51.172;6.682;2023-04-05T00:22:02;10.40;;;4.20;;
71610;SDS011;59459;51.172;6.682;2023-04-05T00:24:27;10.50;;;4.33;;
71610;SDS011;59459;51.172;6.682;2023-04-05T00:26:53;13.52;;;5.03;;
71610;SDS011;59459;51.172;6.682;2023-04-05T00:29:18;15.63;;;4.83;;
71610;SDS011;59459;51.172;6.682;2023-04-05T00:31:43;15.10;;;5.03;;
71610;SDS011;59459;51.172;6.682;2023-04-05T00:34:08;13.00;;;4.43;;
71610;SDS011;59459;51.172;6.682;2023-04-05T00:36:36;14.83;;;4.77;;
71610;SDS011;59459;51.172;6.682;2023-04-05T00:39:01;12.87;;;4.67;;
71610;SDS011;59459;51.172;6.682;2023-04-05T00:41:27;13.55;;;4.85;;
71610;SDS011;59459;51.172;6.682;2023-04-05T00:43:52;15.70;;;5.13;;
71610;SDS011;59459;51.172;6.682;2023-04-05T00:46:17;13.33;;;4.53;;
71610;SDS011;59459;51.172;6.682;2023-04-05T00:48:42;15.43;;;4.70;;
71610;SDS011;59459;51.172;6.682;2023-04-05T00:51:08;13.37;;;5.20;;
71610;SDS011;59459;51.172;6.682;2023-04-05T00:53:35;12.70;;;4.82;;
71610;SDS011;59459;51.172;6.682;2023-04-05T00:56:01;14.45;;;5.00;;
71610;SDS011;59459;51.172;6.682;2023-04-05T00:58:27;12.30;;;5.45;;
71610;SDS011;59459;51.172;6.682;2023-04-05T01:00:56;13.77;;;5.30;;
71610;SDS011;59459;51.172;6.682;2023-04-05T01:03:23;15.47;;;4.90;;
71610;SDS011;59459;51.172;6.682;2023-04-05T01:05:52;11.18;;;4.57;;
71610;SDS011;59459;51.172;6.682;2023-04-05T01:08:33;16.55;;;5.25;;
71610;SDS011;59459;51.172;6.682;2023-04-05T01:11:01;16.15;;;5.57;;
71610;SDS011;59459;51.172;6.682;2023-04-05T01:13:30;13.10;;;4.57;;
71610;SDS011;59459;51.172;6.682;2023-04-05T01:15:56;12.10;;;5.03;;
71610;SDS011;59459;51.172;6.682;2023-04-05T01:18:21;14.02;;;5.38;;
71610;SDS011;59459;51.172;6.682;2023-04-05T01:20:49;14.60;;;5.35;;
71610;SDS011;59459;51.172;6.682;2023-04-05T01:23:35;12.40;;;4.90;;
71610;SDS011;59459;51.172;6.682;2023-04-05T01:33:51;12.80;;;5.20;;
71610;SDS011;59459;51.172;6.682;2023-04-05T01:38:45;12.77;;;5.03;;
71610;SDS011;59459;51.172;6.682;2023-04-05T01:41:11;14.25;;;5.72;;
71610;SDS011;59459;51.172;6.682;2023-04-05T01:43:36;10.93;;;4.50;;
71610;SDS011;59459;51.172;6.682;2023-04-05T01:46:02;13.87;;;5.60;;
71610;SDS011;59459;51.172;6.682;2023-04-05T01:48:27;14.17;;;5.50;;
71610;SDS011;59459;51.172;6.682;2023-04-05T01:50:52;13.10;;;5.57;;
71610;SDS011;59459;51.172;6.682;2023-04-05T01:53:17;14.70;;;4.97;;
71610;SDS011;59459;51.172;6.682;2023-04-05T01:55:43;13.67;;;5.40;;
71610;SDS011;59459;51.172;6.682;2023-04-05T01:58:08;14.03;;;5.03;;
71610;SDS011;59459;51.172;6.682;2023-04-05T02:00:33;13.50;;;4.80;;
71610;SDS011;59459;51.172;6.682;2023-04-05T02:02:58;14.53;;;5.17;;
71610;SDS011;59459;51.172;6.682;2023-04-05T02:05:23;14.93;;;5.70;;
71610;SDS011;59459;51.172;6.682;2023-04-05T02:07:49;14.20;;;4.97;;
71610;SDS011;59459;51.172;6.682;2023-04-05T02:10:14;12.60;;;4.25;;
71610;SDS011;59459;51.172;6.682;2023-04-05T02:12:39;14.37;;;5.20;;
71610;SDS011;59459;51.172;6.682;2023-04-05T02:15:05;13.93;;;5.50;;
71610;SDS011;59459;51.172;6.682;2023-04-05T02:17:30;14.53;;;5.40;;
71610;SDS011;59459;51.172;6.682;2023-04-05T02:20:03;16.13;;;5.28;;
71610;SDS011;59459;51.172;6.682;2023-04-05T02:22:30;14.73;;;5.57;;
71610;SDS011;59459;51.172;6.682;2023-04-05T02:24:56;14.57;;;5.40;;
71610;SDS011;59459;51.172;6.682;2023-04-05T02:27:21;14.57;;;5.67;;
71610;SDS011;59459;51.172;6.682;2023-04-05T02:29:46;12.17;;;4.67;;
71610;SDS011;59459;51.172;6.682;2023-04-05T02:32:11;13.57;;;5.20;;
71610;SDS011;59459;51.172;6.682;2023-04-05T02:34:37;13.50;;;5.83;;
71610;SDS011;59459;51.172;6.682;2023-04-05T02:37:05;14.93;;;5.85;;
71610;SDS011;59459;51.172;6.682;2023-04-05T02:39:30;14.97;;;5.77;;
71610;SDS011;59459;51.172;6.682;2023-04-05T02:41:55;12.43;;;5.80;;
71610;SDS011;59459;51.172;6.682;2023-04-05T02:44:21;15.37;;;5.87;;
71610;SDS011;59459;51.172;6.682;2023-04-05T02:46:46;16.53;;;6.00;;
71610;SDS011;59459;51.172;6.682;2023-04-05T02:49:11;14.53;;;5.20;;
71610;SDS011;59459;51.172;6.682;2023-04-05T02:51:37;16.17;;;6.07;;
71610;SDS011;59459;51.172;6.682;2023-04-05T02:54:04;15.88;;;6.28;;
71610;SDS011;59459;51.172;6.682;2023-04-05T02:56:30;14.43;;;6.20;;
71610;SDS011;59459;51.172;6.682;2023-04-05T02:58:55;15.57;;;6.33;;
71610;SDS011;59459;51.172;6.682;2023-04-05T03:01:20;14.90;;;5.47;;
71610;SDS011;59459;51.172;6.682;2023-04-05T03:03:46;15.85;;;6.13;;
71610;SDS011;59459;51.172;6.682;2023-04-05T03:06:11;14.90;;;5.67;;
71610;SDS011;59459;51.172;6.682;2023-04-05T03:08:40;13.45;;;5.65;;
71610;SDS011;59459;51.172;6.682;2023-04-05T03:11:10;16.40;;;6.38;;
71610;SDS011;59459;51.172;6.682;2023-04-05T03:13:36;12.53;;;5.87;;
71610;SDS011;59459;51.172;6.682;2023-04-05T03:16:01;15.00;;;5.80;;
71610;SDS011;59459;51.172;6.682;2023-04-05T03:18:26;13.67;;;5.60;;
71610;SDS011;59459;51.172;6.682;2023-04-05T03:20:53;15.15;;;6.43;;
71610;SDS011;59459;51.172;6.682;2023-04-05T03:23:25;16.13;;;6.28;;
71610;SDS011;59459;51.172;6.682;2023-04-05T03:26:01;14.80;;;6.03;;
71610;SDS011;59459;51.172;6.682;2023-04-05T03:28:27;18.27;;;6.22;;
71610;SDS011;59459;51.172;6.682;2023-04-05T03:30:53;13.93;;;5.83;;
71610;SDS011;59459;51.172;6.682;2023-04-05T03:33:18;14.63;;;5.80;;
71610;SDS011;59459;51.172;6.682;2023-04-05T03:35:44;13.77;;;5.13;;
71610;SDS011;59459;51.172;6.682;2023-04-05T03:38:09;16.03;;;6.40;;
71610;SDS011;59459;51.172;6.682;2023-04-05T03:40:35;16.38;;;6.05;;
71610;SDS011;59459;51.172;6.682;2023-04-05T03:43:00;19.07;;;6.80;;
71610;SDS011;59459;51.172;6.682;2023-04-05T03:45:25;17.77;;;5.77;;
71610;SDS011;59459;51.172;6.682;2023-04-05T03:47:51;14.87;;;5.63;;
71610;SDS011;59459;51.172;6.682;2023-04-05T03:50:16;14.47;;;5.90;;
71610;SDS011;59459;51.172;6.682;2023-04-05T03:52:41;12.47;;;5.67;;
71610;SDS011;59459;51.172;6.682;2023-04-05T03:55:07;14.73;;;6.00;;
71610;SDS011;59459;51.172;6.682;2023-04-05T03:57:32;17.90;;;6.68;;
71610;SDS011;59459;51.172;6.682;2023-04-05T03:59:57;17.33;;;6.33;;
71610;SDS011;59459;51.172;6.682;2023-04-05T04:02:23;14.40;;;6.03;;
71610;SDS011;59459;51.172;6.682;2023-04-05T04:04:48;12.17;;;5.90;;
71610;SDS011;59459;51.172;6.682;2023-04-05T04:07:13;13.97;;;6.17;;
71610;SDS011;59459;51.172;6.682;2023-04-05T04:09:38;16.23;;;6.43;;
71610;SDS011;59459;51.172;6.682;2023-04-05T04:12:04;17.23;;;6.70;;
71610;SDS011;59459;51.172;6.682;2023-04-05T04:14:29;16.03;;;6.53;;
71610;SDS011;59459;51.172;6.682;2023-04-05T04:16:54;16.50;;;6.57;;
71610;SDS011;59459;51.172;6.682;2023-04-05T04:19:19;16.97;;;5.43;;
71610;SDS011;59459;51.172;6.682;2023-04-05T04:21:45;18.77;;;5.67;;
71610;SDS011;59459;51.172;6.682;2023-04-05T04:24:15;16.23;;;6.28;;
71610;SDS011;59459;51.172;6.682;2023-04-05T04:26:42;16.60;;;6.10;;
71610;SDS011;59459;51.172;6.682;2023-04-05T04:29:08;14.10;;;6.47;;
71610;SDS011;59459;51.172;6.682;2023-04-05T04:31:33;11.93;;;5.90;;
71610;SDS011;59459;51.172;6.682;2023-04-05T04:33:58;15.50;;;6.40;;
71610;SDS011;59459;51.172;6.682;2023-04-05T04:36:26;17.90;;;6.72;;
71610;SDS011;59459;51.172;6.682;2023-04-05T04:39:00;15.73;;;6.18;;
71610;SDS011;59459;51.172;6.682;2023-04-05T04:41:30;17.10;;;6.47;;
71610;SDS011;59459;51.172;6.682;2023-04-05T04:43:57;15.57;;;6.13;;
71610;SDS011;59459;51.172;6.682;2023-04-05T04:46:26;16.50;;;7.00;;
71610;SDS011;59459;51.172;6.682;2023-04-05T04:48:54;16.23;;;7.13;;
71610;SDS011;59459;51.172;6.682;2023-04-05T04:51:21;16.02;;;6.25;;
71610;SDS011;59459;51.172;6.682;2023-04-05T04:53:46;19.97;;;7.50;;
71610;SDS011;59459;51.172;6.682;2023-04-05T04:56:11;20.73;;;7.07;;
71610;SDS011;59459;51.172;6.682;2023-04-05T04:58:37;18.30;;;7.28;;
71610;SDS011;59459;51.172;6.682;2023-04-05T05:01:06;22.07;;;7.23;;
71610;SDS011;59459;51.172;6.682;2023-04-05T05:03:33;20.13;;;6.80;;
71610;SDS011;59459;51.172;6.682;2023-04-05T05:05:58;17.20;;;6.70;;
71610;SDS011;59459;51.172;6.682;2023-04-05T05:08:24;20.57;;;7.57;;
71610;SDS011;59459;51.172;6.682;2023-04-05T05:10:49;19.30;;;7.30;;
71610;SDS011;59459;51.172;6.682;2023-04-05T05:13:16;19.17;;;7.75;;
71610;SDS011;59459;51.172;6.682;2023-04-05T05:15:41;19.67;;;7.00;;
71610;SDS011;59459;51.172;6.682;2023-04-05T05:18:06;17.50;;;6.93;;
71610;SDS011;59459;51.172;6.682;2023-04-05T05:20:32;19.60;;;7.15;;
71610;SDS011;59459;51.172;6.682;2023-04-05T05:22:57;15.77;;;6.53;;
71610;SDS011;59459;51.172;6.682;2023-04-05T05:25:25;21.88;;;8.15;;
71610;SDS011;59459;51.172;6.682;2023-04-05T05:27:50;17.97;;;7.53;;
71610;SDS011;59459;51.172;6.682;2023-04-05T05:30:15;21.20;;;7.13;;
71610;SDS011;59459;51.172;6.682;2023-04-05T05:32:40;23.33;;;8.03;;
71610;SDS011;59459;51.172;6.682;2023-04-05T05:35:07;18.45;;;8.02;;
71610;SDS011;59459;51.172;6.682;2023-04-05T05:37:32;17.93;;;7.40;;
71610;SDS011;59459;51.172;6.682;2023-04-05T05:39:58;18.23;;;7.50;;
71610;SDS011;59459;51.172;6.682;2023-04-05T05:42:23;20.30;;;7.77;;
71610;SDS011;59459;51.172;6.682;2023-04-05T05:44:48;19.17;;;7.37;;
71610;SDS011;59459;51.172;6.682;2023-04-05T05:47:14;18.83;;;7.43;;
71610;SDS011;59459;51.172;6.682;2023-04-05T05:49:39;20.67;;;7.90;;
71610;SDS011;59459;51.172;6.682;2023-04-05T05:52:05;21.53;;;9.00;;
71610;SDS011;59459;51.172;6.682;2023-04-05T05:54:30;18.33;;;7.20;;
71610;SDS011;59459;51.172;6.682;2023-04-05T05:56:55;17.27;;;7.50;;
71610;SDS011;59459;51.172;6.682;2023-04-05T05:59:21;19.27;;;7.37;;
71610;SDS011;59459;51.172;6.682;2023-04-05T06:01:46;17.27;;;6.93;;
71610;SDS011;59459;51.172;6.682;2023-04-05T06:04:12;16.70;;;6.63;;
71610;SDS011;59459;51.172;6.682;2023-04-05T06:06:38;19.42;;;8.27;;
71610;SDS011;59459;51.172;6.682;2023-04-05T06:09:04;16.75;;;7.43;;
71610;SDS011;59459;51.172;6.682;2023-04-05T06:11:29;15.67;;;7.27;;
71610;SDS011;59459;51.172;6.682;2023-04-05T06:13:55;18.83;;;7.50;;
71610;SDS011;59459;51.172;6.682;2023-04-05T06:16:20;16.37;;;7.00;;
71610;SDS011;59459;51.172;6.682;2023-04-05T06:18:45;15.40;;;7.17;;
71610;SDS011;59459;51.172;6.682;2023-04-05T06:21:11;14.63;;;5.85;;
71610;SDS011;59459;51.172;6.682;2023-04-05T06:23:36;15.37;;;7.10;;
71610;SDS011;59459;51.172;6.682;2023-04-05T06:26:02;15.37;;;6.47;;
71610;SDS011;59459;51.172;6.682;2023-04-05T06:28:27;15.40;;;6.53;;
71610;SDS011;59459;51.172;6.682;2023-04-05T06:30:54;12.70;;;4.93;;
71610;SDS011;59459;51.172;6.682;2023-04-05T06:33:19;16.10;;;5.60;;
71610;SDS011;59459;51.172;6.682;2023-04-05T06:35:45;11.30;;;5.77;;
71610;SDS011;59459;51.172;6.682;2023-04-05T06:38:10;13.87;;;5.13;;
71610;SDS011;59459;51.172;6.682;2023-04-05T06:40:35;14.07;;;5.20;;
71610;SDS011;59459;51.172;6.682;2023-04-05T06:43:01;11.10;;;5.00;;
71610;SDS011;59459;51.172;6.682;2023-04-05T06:45:26;10.00;;;4.73;;
71610;SDS011;59459;51.172;6.682;2023-04-05T06:47:51;12.65;;;5.40;;
71610;SDS011;59459;51.172;6.682;2023-04-05T06:50:16;10.07;;;4.83;;
71610;SDS011;59459;51.172;6.682;2023-04-05T06:52:42;13.30;;;5.27;;
71610;SDS011;59459;51.172;6.682;2023-04-05T06:55:07;13.37;;;5.60;;
71610;SDS011;59459;51.172;6.682;2023-04-05T06:57:33;13.13;;;5.00;;
71610;SDS011;59459;51.172;6.682;2023-04-05T06:59:58;11.43;;;4.73;;
71610;SDS011;59459;51.172;6.682;2023-04-05T07:02:23;12.77;;;5.27;;
71610;SDS011;59459;51.172;6.682;2023-04-05T07:04:48;12.50;;;4.50;;
71610;SDS011;59459;51.172;6.682;2023-04-05T07:07:14;16.40;;;6.67;;
71610;SDS011;59459;51.172;6.682;2023-04-05T07:09:39;11.90;;;5.67;;
71610;SDS011;59459;51.172;6.682;2023-04-05T07:12:05;12.20;;;5.47;;
71610;SDS011;59459;51.172;6.682;2023-04-05T07:14:34;13.32;;;4.90;;
71610;SDS011;59459;51.172;6.682;2023-04-05T07:16:59;12.82;;;5.80;;
71610;SDS011;59459;51.172;6.682;2023-04-05T07:19:25;12.33;;;5.00;;
71610;SDS011;59459;51.172;6.682;2023-04-05T07:21:50;12.43;;;5.23;;
71610;SDS011;59459;51.172;6.682;2023-04-05T07:24:16;12.68;;;5.18;;
71610;SDS011;59459;51.172;6.682;2023-04-05T07:26:41;14.73;;;5.30;;
71610;SDS011;59459;51.172;6.682;2023-04-05T07:29:06;12.50;;;6.80;;
71610;SDS011;59459;51.172;6.682;2023-04-05T07:31:33;12.47;;;6.13;;
71610;SDS011;59459;51.172;6.682;2023-04-05T07:33:58;10.93;;;6.03;;
71610;SDS011;59459;51.172;6.682;2023-04-05T07:36:23;9.50;;;5.00;;
71610;SDS011;59459;51.172;6.682;2023-04-05T07:38:48;11.67;;;5.90;;
71610;SDS011;59459;51.172;6.682;2023-04-05T07:41:14;11.98;;;7.45;;
71610;SDS011;59459;51.172;6.682;2023-04-05T07:43:42;12.30;;;5.97;;
71610;SDS011;59459;51.172;6.682;2023-04-05T07:46:07;10.67;;;5.83;;
71610;SDS011;59459;51.172;6.682;2023-04-05T07:48:33;14.07;;;6.20;;
71610;SDS011;59459;51.172;6.682;2023-04-05T07:51:01;12.00;;;6.40;;
71610;SDS011;59459;51.172;6.682;2023-04-05T07:53:27;11.85;;;6.97;;
71610;SDS011;59459;51.172;6.682;2023-04-05T07:55:52;12.47;;;6.40;;
71610;SDS011;59459;51.172;6.682;2023-04-05T07:58:17;10.67;;;6.80;;
71610;SDS011;59459;51.172;6.682;2023-04-05T08:00:42;11.30;;;6.53;;
71610;SDS011;59459;51.172;6.682;2023-04-05T08:03:08;12.07;;;5.80;;
71610;SDS011;59459;51.172;6.682;2023-04-05T08:05:33;10.93;;;6.67;;
71610;SDS011;59459;51.172;6.682;2023-04-05T08:07:58;11.07;;;6.73;;
71610;SDS011;59459;51.172;6.682;2023-04-05T08:10:23;12.13;;;7.30;;
71610;SDS011;59459;51.172;6.682;2023-04-05T08:12:49;14.17;;;6.63;;
71610;SDS011;59459;51.172;6.682;2023-04-05T08:15:14;11.57;;;6.57;;
71610;SDS011;59459;51.172;6.682;2023-04-05T08:17:40;11.23;;;6.53;;
71610;SDS011;59459;51.172;6.682;2023-04-05T08:20:05;12.53;;;6.53;;
71610;SDS011;59459;51.172;6.682;2023-04-05T08:22:31;9.90;;;6.00;;
71610;SDS011;59459;51.172;6.682;2023-04-05T08:24:56;12.57;;;6.37;;
71610;SDS011;59459;51.172;6.682;2023-04-05T08:27:21;10.53;;;6.00;;
71610;SDS011;59459;51.172;6.682;2023-04-05T08:29:46;10.03;;;5.57;;
71610;SDS011;59459;51.172;6.682;2023-04-05T08:32:11;11.30;;;6.90;;
71610;SDS011;59459;51.172;6.682;2023-04-05T08:34:37;12.17;;;6.67;;
71610;SDS011;59459;51.172;6.682;2023-04-05T08:37:02;11.40;;;6.63;;
71610;SDS011;59459;51.172;6.682;2023-04-05T08:39:27;11.10;;;6.17;;
71610;SDS011;59459;51.172;6.682;2023-04-05T08:44:23;12.60;;;7.05;;
71610;SDS011;59459;51.172;6.682;2023-04-05T08:46:50;12.87;;;7.63;;
71610;SDS011;59459;51.172;6.682;2023-04-05T08:49:16;15.75;;;8.07;;
71610;SDS011;59459;51.172;6.682;2023-04-05T08:51:41;14.43;;;6.77;;
71610;SDS011;59459;51.172;6.682;2023-04-05T08:54:06;11.70;;;6.20;;
71610;SDS011;59459;51.172;6.682;2023-04-05T08:56:32;10.13;;;6.10;;
71610;SDS011;59459;51.172;6.682;2023-04-05T08:59:10;15.20;;;7.82;;
71610;SDS011;59459;51.172;6.682;2023-04-05T09:01:37;11.68;;;7.50;;
71610;SDS011;59459;51.172;6.682;2023-04-05T09:04:06;12.45;;;7.43;;
71610;SDS011;59459;51.172;6.682;2023-04-05T09:06:32;11.03;;;6.83;;
71610;SDS011;59459;51.172;6.682;2023-04-05T09:08:57;12.88;;;6.55;;
71610;SDS011;59459;51.172;6.682;2023-04-05T09:11:23;11.93;;;6.63;;
71610;SDS011;59459;51.172;6.682;2023-04-05T09:13:48;12.40;;;6.55;;
71610;SDS011;59459;51.172;6.682;2023-04-05T09:16:13;13.63;;;7.23;;
71610;SDS011;59459;51.172;6.682;2023-04-05T09:18:40;14.67;;;6.73;;
71610;SDS011;59459;51.172;6.682;2023-04-05T09:21:05;13.30;;;6.45;;
71610;SDS011;59459;51.172;6.682;2023-04-05T09:23:32;9.83;;;6.23;;
71610;SDS011;59459;51.172;6.682;2023-04-05T09:25:58;15.20;;;6.90;;
71610;SDS011;59459;51.172;6.682;2023-04-05T09:28:26;11.93;;;6.33;;
71610;SDS011;59459;51.172;6.682;2023-04-05T09:31:03;12.73;;;6.65;;
71610;SDS011;59459;51.172;6.682;2023-04-05T09:33:28;11.20;;;6.93;;
71610;SDS011;59459;51.172;6.682;2023-04-05T09:35:54;12.73;;;7.53;;
71610;SDS011;59459;51.172;6.682;2023-04-05T09:38:19;12.13;;;7.37;;
71610;SDS011;59459;51.172;6.682;2023-04-05T09:41:07;10.68;;;7.35;;
71610;SDS011;59459;51.172;6.682;2023-04-05T09:43:39;13.73;;;7.80;;
71610;SDS011;59459;51.172;6.682;2023-04-05T09:46:05;11.77;;;7.43;;
71610;SDS011;59459;51.172;6.682;2023-04-05T09:48:46;11.57;;;7.03;;
71610;SDS011;59459;51.172;6.682;2023-04-05T09:51:13;11.43;;;6.63;;
71610;SDS011;59459;51.172;6.682;2023-04-05T09:53:55;10.43;;;6.70;;
71610;SDS011;59459;51.172;6.682;2023-04-05T09:56:20;11.05;;;7.03;;
71610;SDS011;59459;51.172;6.682;2023-04-05T09:58:47;10.77;;;7.40;;
71610;SDS011;59459;51.172;6.682;2023-04-05T10:01:14;12.60;;;7.45;;
71610;SDS011;59459;51.172;6.682;2023-04-05T10:03:48;11.07;;;7.00;;
71610;SDS011;59459;51.172;6.682;2023-04-05T10:06:17;10.90;;;7.57;;
71610;SDS011;59459;51.172;6.682;2023-04-05T10:08:42;12.80;;;7.50;;
71610;SDS011;59459;51.172;6.682;2023-04-05T10:11:08;10.32;;;7.60;;
71610;SDS011;59459;51.172;6.682;2023-04-05T10:13:34;9.07;;;6.43;;
71610;SDS011;59459;51.172;6.682;2023-04-05T10:16:01;10.65;;;6.70;;
71610;SDS011;59459;51.172;6.682;2023-04-05T10:18:31;11.75;;;6.85;;
71610;SDS011;59459;51.172;6.682;2023-04-05T10:21:03;13.85;;;7.13;;
71610;SDS011;59459;51.172;6.682;2023-04-05T10:23:30;10.80;;;7.90;;
71610;SDS011;59459;51.172;6.682;2023-04-05T10:26:07;12.00;;;7.63;;
71610;SDS011;59459;51.172;6.682;2023-04-05T10:33:36;10.27;;;6.27;;
71610;SDS011;59459;51.172;6.682;2023-04-05T10:38:28;10.63;;;8.40;;
71610;SDS011;59459;51.172;6.682;2023-04-05T10:41:12;12.15;;;8.82;;
71610;SDS011;59459;51.172;6.682;2023-04-05T10:43:38;10.90;;;8.27;;
71610;SDS011;59459;51.172;6.682;2023-04-05T10:46:05;12.30;;;8.65;;
71610;SDS011;59459;51.172;6.682;2023-04-05T10:50:59;12.00;;;9.25;;
71610;SDS011;59459;51.172;6.682;2023-04-05T10:53:25;13.30;;;7.97;;
71610;SDS011;59459;51.172;6.682;2023-04-05T10:55:51;11.38;;;8.38;;
71610;SDS011;59459;51.172;6.682;2023-04-05T10:58:17;11.00;;;7.93;;
71610;SDS011;59459;51.172;6.682;2023-04-05T11:00:43;11.57;;;7.57;;
71610;SDS011;59459;51.172;6.682;2023-04-05T11:03:09;9.80;;;6.57;;
71610;SDS011;59459;51.172;6.682;2023-04-05T11:05:35;10.52;;;7.57;;
71610;SDS011;59459;51.172;6.682;2023-04-05T11:08:02;9.77;;;6.40;;
71610;SDS011;59459;51.172;6.682;2023-04-05T11:10:28;10.77;;;6.90;;
71610;SDS011;59459;51.172;6.682;2023-04-05T11:18:19;10.75;;;7.90;;
71610;SDS011;59459;51.172;6.682;2023-04-05T11:23:10;9.40;;;8.00;;
71610;SDS011;59459;51.172;6.682;2023-04-05T11:25:36;10.70;;;8.07;;
71610;SDS011;59459;51.172;6.682;2023-04-05T11:28:01;11.33;;;7.90;;
71610;SDS011;59459;51.172;6.682;2023-04-05T11:30:44;11.23;;;7.97;;
71610;SDS011;59459;51.172;6.682;2023-04-05T11:33:10;12.60;;;8.10;;
71610;SDS011;59459;51.172;6.682;2023-04-05T11:35:35;14.77;;;8.40;;
71610;SDS011;59459;51.172;6.682;2023-04-05T11:40:29;12.30;;;8.57;;
71610;SDS011;59459;51.172;6.682;2023-04-05T11:43:07;11.13;;;7.85;;
71610;SDS011;59459;51.172;6.682;2023-04-05T11:45:34;12.70;;;8.57;;
71610;SDS011;59459;51.172;6.682;2023-04-05T11:48:03;9.75;;;7.20;;
71610;SDS011;59459;51.172;6.682;2023-04-05T11:50:28;12.50;;;8.55;;
71610;SDS011;59459;51.172;6.682;2023-04-05T11:55:52;11.13;;;7.90;;
71610;SDS011;59459;51.172;6.682;2023-04-05T11:58:20;10.15;;;8.25;;
71610;SDS011;59459;51.172;6.682;2023-04-05T12:00:55;11.57;;;7.57;;
71610;SDS011;59459;51.172;6.682;2023-04-05T12:03:21;11.88;;;7.38;;
71610;SDS011;59459;51.172;6.682;2023-04-05T12:08:11;11.17;;;7.67;;
71610;SDS011;59459;51.172;6.682;2023-04-05T12:10:36;11.47;;;6.97;;
71610;SDS011;59459;51.172;6.682;2023-04-05T12:13:02;12.87;;;7.10;;
71610;SDS011;59459;51.172;6.682;2023-04-05T12:15:27;10.80;;;7.63;;
71610;SDS011;59459;51.172;6.682;2023-04-05T12:17:52;11.30;;;7.33;;
71610;SDS011;59459;51.172;6.682;2023-04-05T12:20:19;11.15;;;7.35;;
71610;SDS011;59459;51.172;6.682;2023-04-05T12:22:45;11.65;;;8.02;;
71610;SDS011;59459;51.172;6.682;2023-04-05T12:25:13;11.43;;;8.70;;
71610;SDS011;59459;51.172;6.682;2023-04-05T12:27:38;12.40;;;8.75;;
71610;SDS011;59459;51.172;6.682;2023-04-05T12:30:14;11.77;;;7.93;;
71610;SDS011;59459;51.172;6.682;2023-04-05T12:32:47;12.40;;;9.07;;
71610;SDS011;59459;51.172;6.682;2023-04-05T12:35:15;12.20;;;8.50;;
71610;SDS011;59459;51.172;6.682;2023-04-05T12:37:40;12.52;;;7.90;;
71610;SDS011;59459;51.172;6.682;2023-04-05T12:40:06;12.90;;;7.37;;
71610;SDS011;59459;51.172;6.682;2023-04-05T12:42:32;11.70;;;6.85;;
71610;SDS011;59459;51.172;6.682;2023-04-05T12:45:06;12.85;;;8.75;;
71610;SDS011;59459;51.172;6.682;2023-04-05T12:47:33;11.13;;;7.47;;
71610;SDS011;59459;51.172;6.682;2023-04-05T12:50:15;14.57;;;7.57;;
71610;SDS011;59459;51.172;6.682;2023-04-05T12:52:53;12.05;;;7.28;;
71610;SDS011;59459;51.172;6.682;2023-04-05T12:55:19;11.65;;;6.88;;
71610;SDS011;59459;51.172;6.682;2023-04-05T12:57:47;14.00;;;8.10;;
71610;SDS011;59459;51.172;6.682;2023-04-05T13:00:13;11.60;;;6.73;;
71610;SDS011;59459;51.172;6.682;2023-04-05T13:02:38;10.23;;;6.60;;
71610;SDS011;59459;51.172;6.682;2023-04-05T13:05:03;11.50;;;7.07;;
71610;SDS011;59459;51.172;6.682;2023-04-05T13:07:28;11.80;;;7.03;;
71610;SDS011;59459;51.172;6.682;2023-04-05T13:09:54;10.83;;;6.60;;
71610;SDS011;59459;51.172;6.682;2023-04-05T13:12:19;12.93;;;7.30;;
71610;SDS011;59459;51.172;6.682;2023-04-05T13:14:44;9.73;;;6.53;;
71610;SDS011;59459;51.172;6.682;2023-04-05T13:17:09;11.27;;;6.70;;
71610;SDS011;59459;51.172;6.682;2023-04-05T13:19:35;12.33;;;6.80;;
71610;SDS011;59459;51.172;6.682;2023-04-05T13:22:00;11.88;;;6.93;;
71610;SDS011;59459;51.172;6.682;2023-04-05T13:24:26;11.10;;;6.60;;
71610;SDS011;59459;51.172;6.682;2023-04-05T13:26:51;15.33;;;7.40;;
71610;SDS011;59459;51.172;6.682;2023-04-05T13:29:16;12.87;;;6.30;;
71610;SDS011;59459;51.172;6.682;2023-04-05T13:31:41;11.30;;;7.43;;
71610;SDS011;59459;51.172;6.682;2023-04-05T13:34:06;13.07;;;7.17;;
71610;SDS011;59459;51.172;6.682;2023-04-05T13:36:32;14.47;;;7.10;;
71610;SDS011;59459;51.172;6.682;2023-04-05T13:38:57;12.03;;;7.00;;
71610;SDS011;59459;51.172;6.682;2023-04-05T13:41:22;11.50;;;6.67;;
71610;SDS011;59459;51.172;6.682;2023-04-05T13:43:48;11.30;;;6.37;;
71610;SDS011;59459;51.172;6.682;2023-04-05T13:46:13;11.67;;;6.57;;
71610;SDS011;59459;51.172;6.682;2023-04-05T13:48:38;11.77;;;6.87;;
71610;SDS011;59459;51.172;6.682;2023-04-05T13:51:03;11.23;;;6.73;;
71610;SDS011;59459;51.172;6.682;2023-04-05T13:53:29;10.57;;;6.17;;
71610;SDS011;59459;51.172;6.682;2023-04-05T13:55:54;12.30;;;7.40;;
71610;SDS011;59459;51.172;6.682;2023-04-05T13:58:20;11.13;;;7.25;;
71610;SDS011;59459;51.172;6.682;2023-04-05T14:00:45;11.93;;;6.63;;
71610;SDS011;59459;51.172;6.682;2023-04-05T14:03:11;12.67;;;7.13;;
71610;SDS011;59459;51.172;6.682;2023-04-05T14:05:36;13.30;;;6.47;;
71610;SDS011;59459;51.172;6.682;2023-04-05T14:08:01;11.57;;;6.57;;
71610;SDS011;59459;51.172;6.682;2023-04-05T14:10:26;13.17;;;6.90;;
71610;SDS011;59459;51.172;6.682;2023-04-05T14:12:52;12.50;;;6.60;;
71610;SDS011;59459;51.172;6.682;2023-04-05T14:15:17;14.00;;;7.23;;
71610;SDS011;59459;51.172;6.682;2023-04-05T14:17:42;13.60;;;7.20;;
71610;SDS011;59459;51.172;6.682;2023-04-05T14:20:07;12.70;;;6.83;;
71610;SDS011;59459;51.172;6.682;2023-04-05T14:22:33;14.33;;;6.70;;
71610;SDS011;59459;51.172;6.682;2023-04-05T14:24:58;11.70;;;6.93;;
71610;SDS011;59459;51.172;6.682;2023-04-05T14:27:23;14.00;;;7.27;;
71610;SDS011;59459;51.172;6.682;2023-04-05T14:29:50;12.20;;;6.47;;
71610;SDS011;59459;51.172;6.682;2023-04-05T14:32:16;12.40;;;6.75;;
71610;SDS011;59459;51.172;6.682;2023-04-05T14:34:41;13.37;;;6.70;;
71610;SDS011;59459;51.172;6.682;2023-04-05T14:37:06;12.30;;;6.57;;
71610;SDS011;59459;51.172;6.682;2023-04-05T14:39:32;12.30;;;7.30;;
71610;SDS011;59459;51.172;6.682;2023-04-05T14:41:57;14.47;;;7.27;;
71610;SDS011;59459;51.172;6.682;2023-04-05T14:44:23;13.70;;;6.88;;
71610;SDS011;59459;51.172;6.682;2023-04-05T14:46:50;10.77;;;6.00;;
71610;SDS011;59459;51.172;6.682;2023-04-05T14:49:16;14.43;;;7.47;;
71610;SDS011;59459;51.172;6.682;2023-04-05T14:51:41;14.30;;;6.80;;
71610;SDS011;59459;51.172;6.682;2023-04-05T14:54:06;15.03;;;7.57;;
71610;SDS011;59459;51.172;6.682;2023-04-05T14:56:32;15.03;;;6.30;;
71610;SDS011;59459;51.172;6.682;2023-04-05T14:58:57;12.90;;;6.55;;
71610;SDS011;59459;51.172;6.682;2023-04-05T15:01:22;12.00;;;6.23;;
71610;SDS011;59459;51.172;6.682;2023-04-05T15:03:48;12.20;;;5.50;;
71610;SDS011;59459;51.172;6.682;2023-04-05T15:06:14;12.60;;;6.70;;
71610;SDS011;59459;51.172;6.682;2023-04-05T15:08:40;12.27;;;5.83;;